Cape Girardeau, Missouri
Current Conditions -  °F | °C
As of 2:53 PM on Wednesday 26 Nov 2014 (Local Time) from KCGI Reporting Station
Haze Haze  
Wind Chill: 33°   Ceiling: 2300
Heat Index: 37°   Visibility: 4mi
Dew Point: 35°   Wind: 5mph
Humidity: 93%   Direction: 190°S
Pressure: 30"   Gusts: NA
Location:  37.3°N, 89.54°W
Report Text: KCGI 262053Z 19004KT 4SM UP BR BKN023 OVC030 03/02 A3000 RMK AO2 RAE50UPB50 SLP162 P0005 60007 T00280017 55010
Loading
Personal Weather Stations






























Interactive Weather Map New forecast layout! Learn more

10-Day Weather Forecast

Advertisements
Track Severe Weather on mobile